createdAt,value
2019-03-06T00:02:05.244Z,74.60
2019-03-06T00:04:35.387Z,74.60
2019-03-06T00:07:05.007Z,74.60
2019-03-06T00:09:34.953Z,74.60
2019-03-06T00:12:04.798Z,74.60
2019-03-06T00:14:38.822Z,74.70
2019-03-06T00:17:09.189Z,74.70
2019-03-06T00:19:42.272Z,74.70
2019-03-06T00:22:13.162Z,74.70
2019-03-06T00:24:54.212Z,74.70
2019-03-06T00:27:24.427Z,74.70
2019-03-06T00:29:56.253Z,74.70
2019-03-06T00:32:26.197Z,74.70
2019-03-06T00:34:57.828Z,74.70
2019-03-06T00:37:27.324Z,74.70
2019-03-06T00:40:04.212Z,74.70
2019-03-06T00:42:36.556Z,74.70
2019-03-06T00:45:08.270Z,74.70
2019-03-06T00:47:38.186Z,74.70
2019-03-06T00:50:08.098Z,74.90
2019-03-06T00:52:38.355Z,74.70
2019-03-06T00:55:08.123Z,74.70
2019-03-06T00:57:37.586Z,74.70
2019-03-06T01:00:08.232Z,74.70
2019-03-06T01:02:38.665Z,74.80
2019-03-06T01:05:08.532Z,74.70
2019-03-06T01:07:38.485Z,74.70
2019-03-06T01:10:14.515Z,74.70
2019-03-06T01:12:44.524Z,74.70
2019-03-06T01:15:15.274Z,74.70
2019-03-06T01:17:45.480Z,74.60
2019-03-06T01:20:15.570Z,74.60
2019-03-06T01:22:45.981Z,74.70
2019-03-06T01:25:16.209Z,74.70
2019-03-06T01:27:46.161Z,74.80
2019-03-06T01:30:17.398Z,74.80
2019-03-06T01:33:02.606Z,74.70
2019-03-06T01:36:05.280Z,74.50
2019-03-06T01:41:36.255Z,74.80
2019-03-06T01:44:38.605Z,74.90
2019-03-06T01:47:09.629Z,75.20
2019-03-06T01:49:40.744Z,75.10
2019-03-06T01:52:21.227Z,74.90
2019-03-06T01:54:51.106Z,75.20
2019-03-06T01:57:22.574Z,75.20
2019-03-06T01:59:53.721Z,75.10
2019-03-06T02:02:24.985Z,75.10
2019-03-06T02:05:02.425Z,74.90
2019-03-06T02:07:33.581Z,75.20
2019-03-06T02:10:03.214Z,75.20
2019-03-06T02:12:33.024Z,75.20
2019-03-06T02:15:03.530Z,75.20
2019-03-06T02:17:36.549Z,75.10
2019-03-06T02:20:07.552Z,75.10
2019-03-06T02:22:38.500Z,75.00
2019-03-06T02:25:09.041Z,75.00
2019-03-06T02:27:39.941Z,75.00
2019-03-06T02:30:16.858Z,75.10
2019-03-06T02:32:46.465Z,75.00
2019-03-06T02:35:37.721Z,75.30
2019-03-06T02:38:47.351Z,75.10
2019-03-06T02:44:20.633Z,75.30
2019-03-06T02:50:46.402Z,75.60
2019-03-06T02:53:30.853Z,75.40
2019-03-06T02:56:00.838Z,75.50
2019-03-06T02:58:55.907Z,75.40
2019-03-06T03:01:46.287Z,75.30
2019-03-06T03:04:49.228Z,75.50
2019-03-06T03:07:37.931Z,75.40
2019-03-06T03:10:08.310Z,75.70
2019-03-06T03:12:38.702Z,75.50
2019-03-06T03:15:29.004Z,75.50
2019-03-06T03:18:17.599Z,75.10
2019-03-06T03:21:06.270Z,75.60
2019-03-06T03:23:45.133Z,75.50
2019-03-06T03:26:14.780Z,75.40
2019-03-06T03:28:51.411Z,75.40
2019-03-06T03:31:20.946Z,75.40
2019-03-06T03:33:51.050Z,75.20
2019-03-06T03:36:20.435Z,75.20
2019-03-06T03:38:50.477Z,75.20
2019-03-06T03:41:21.261Z,75.10
2019-03-06T03:43:51.099Z,75.00
2019-03-06T03:46:20.691Z,75.10
2019-03-06T03:48:50.514Z,75.20
2019-03-06T03:51:20.394Z,75.30
2019-03-06T03:53:50.841Z,75.20
2019-03-06T03:56:20.402Z,75.10
2019-03-06T03:58:50.162Z,75.20
2019-03-06T04:01:20.145Z,75.10
2019-03-06T04:03:49.558Z,75.10
2019-03-06T04:06:19.846Z,75.20
2019-03-06T04:08:49.782Z,75.30
2019-03-06T04:11:19.715Z,75.40
2019-03-06T04:13:49.511Z,75.40
2019-03-06T04:16:20.128Z,75.40
2019-03-06T04:18:49.945Z,75.40
2019-03-06T04:21:19.806Z,75.30
2019-03-06T04:23:50.107Z,75.40
2019-03-06T04:26:20.080Z,75.30
2019-03-06T04:28:49.959Z,75.30
2019-03-06T04:31:19.403Z,75.30
2019-03-06T04:33:49.475Z,75.30
2019-03-06T04:36:19.399Z,75.30
2019-03-06T04:38:49.938Z,75.30
2019-03-06T04:41:20.002Z,75.40
2019-03-06T04:43:50.734Z,75.40
2019-03-06T04:46:20.616Z,75.40
2019-03-06T04:48:50.233Z,75.40
2019-03-06T04:51:19.804Z,75.40
2019-03-06T04:54:00.554Z,75.50
2019-03-06T04:56:30.979Z,75.50
2019-03-06T04:59:00.559Z,75.50
2019-03-06T05:01:30.475Z,75.60
2019-03-06T05:04:00.491Z,75.60
2019-03-06T05:06:30.770Z,75.60
2019-03-06T05:09:00.727Z,75.60
2019-03-06T05:11:30.699Z,75.50
2019-03-06T05:14:01.059Z,75.60
2019-03-06T05:17:01.460Z,75.60
2019-03-06T05:19:31.537Z,75.50
2019-03-06T05:22:01.316Z,75.50
2019-03-06T05:24:31.643Z,75.50
2019-03-06T05:27:01.273Z,75.50
2019-03-06T05:29:31.594Z,75.50
2019-03-06T05:32:32.625Z,75.50
2019-03-06T05:35:22.574Z,75.50
2019-03-06T05:38:28.732Z,75.50
2019-03-06T05:40:58.597Z,75.60
2019-03-06T05:43:28.537Z,75.50
2019-03-06T05:45:59.022Z,75.50
2019-03-06T05:48:29.081Z,75.50
2019-03-06T05:50:59.469Z,75.70
2019-03-06T05:53:29.691Z,75.60
2019-03-06T05:55:59.475Z,75.70
2019-03-06T05:58:29.145Z,75.70
2019-03-06T06:00:58.699Z,75.70
2019-03-06T06:03:28.370Z,75.70
2019-03-06T06:05:58.139Z,75.60
2019-03-06T06:08:27.851Z,75.60
2019-03-06T06:10:57.454Z,75.70
2019-03-06T06:13:27.705Z,75.70
2019-03-06T06:15:57.357Z,75.70
2019-03-06T06:18:27.885Z,75.70
2019-03-06T06:21:16.306Z,75.60
2019-03-06T06:23:52.827Z,75.70
2019-03-06T06:26:23.190Z,75.80
2019-03-06T06:28:54.257Z,75.70
2019-03-06T06:31:24.571Z,75.70
2019-03-06T06:33:54.998Z,75.70
2019-03-06T06:36:24.477Z,75.70
2019-03-06T06:38:54.614Z,75.80
2019-03-06T06:41:24.598Z,75.80
2019-03-06T06:43:55.209Z,75.80
2019-03-06T06:46:25.129Z,75.90
2019-03-06T06:48:55.391Z,75.90
2019-03-06T06:52:17.611Z,75.80
2019-03-06T06:55:40.198Z,75.90
2019-03-06T06:58:54.738Z,75.90
2019-03-06T07:02:25.410Z,76.50
2019-03-06T07:05:14.056Z,75.80
2019-03-06T07:08:02.623Z,75.80
2019-03-06T07:10:49.945Z,75.70
2019-03-06T07:13:26.532Z,75.80
2019-03-06T07:16:14.062Z,75.80
2019-03-06T07:19:02.962Z,75.70
2019-03-06T07:21:43.432Z,75.80
2019-03-06T07:24:38.549Z,76.60
2019-03-06T07:27:18.662Z,75.80
2019-03-06T07:30:07.789Z,75.90
2019-03-06T07:32:56.701Z,75.90
2019-03-06T07:36:19.992Z,75.90
2019-03-06T07:38:55.348Z,76.00
2019-03-06T07:41:43.525Z,75.90
2019-03-06T07:44:33.185Z,75.90
2019-03-06T07:47:30.799Z,75.90
2019-03-06T07:50:25.494Z,76.00
2019-03-06T07:53:48.394Z,76.00
2019-03-06T07:56:34.019Z,76.60
2019-03-06T07:59:03.513Z,76.00
2019-03-06T08:01:36.720Z,76.20
2019-03-06T08:04:13.095Z,76.10
2019-03-06T08:06:46.207Z,76.20
2019-03-06T08:09:19.333Z,76.20
2019-03-06T08:12:17.638Z,76.30
2019-03-06T08:15:01.274Z,76.40
2019-03-06T08:18:05.790Z,76.50
2019-03-06T08:20:49.878Z,76.50
2019-03-06T08:23:45.569Z,76.50
2019-03-06T08:26:16.625Z,76.60
2019-03-06T08:28:49.366Z,76.50
2019-03-06T08:31:40.218Z,76.60
2019-03-06T08:34:09.828Z,76.70
2019-03-06T08:36:41.505Z,76.60
2019-03-06T08:39:23.679Z,76.70
2019-03-06T08:41:57.286Z,76.80
2019-03-06T08:44:27.198Z,76.80
2019-03-06T08:47:21.883Z,76.80
2019-03-06T08:50:32.541Z,77.60
2019-03-06T08:53:14.503Z,76.90
2019-03-06T08:56:02.512Z,76.90
2019-03-06T08:59:00.315Z,76.90
2019-03-06T09:08:29.934Z,76.70
2019-03-06T09:11:07.066Z,76.70
2019-03-06T09:14:11.156Z,76.70
2019-03-06T09:16:59.091Z,76.70
2019-03-06T09:19:50.695Z,76.80
2019-03-06T09:22:38.031Z,76.90
2019-03-06T09:25:39.111Z,76.90
2019-03-06T09:28:24.588Z,77.00
2019-03-06T09:31:07.712Z,77.00
2019-03-06T09:33:59.923Z,77.00
2019-03-06T09:36:34.793Z,77.10
2019-03-06T09:39:26.320Z,77.10
2019-03-06T09:42:18.572Z,77.10
2019-03-06T09:44:54.147Z,77.20
2019-03-06T09:48:01.480Z,77.30
2019-03-06T09:50:59.107Z,77.30
2019-03-06T09:53:43.749Z,77.40
2019-03-06T09:56:26.819Z,77.40
2019-03-06T09:59:18.276Z,77.30
2019-03-06T10:02:06.790Z,77.40
2019-03-06T10:04:50.674Z,77.30
2019-03-06T10:07:57.916Z,77.40
2019-03-06T10:10:47.772Z,78.10
2019-03-06T10:13:52.184Z,77.30
2019-03-06T10:16:48.799Z,77.40
2019-03-06T10:19:19.906Z,77.40
2019-03-06T10:21:49.838Z,77.40
2019-03-06T10:24:19.425Z,77.30
2019-03-06T10:26:49.891Z,77.30
2019-03-06T10:29:20.153Z,77.20
2019-03-06T10:31:53.407Z,77.30
2019-03-06T10:34:24.186Z,77.20
2019-03-06T10:36:55.455Z,77.30
2019-03-06T10:39:25.049Z,77.30
2019-03-06T10:41:58.950Z,77.30
2019-03-06T10:44:30.074Z,77.20
2019-03-06T10:47:00.114Z,77.30
2019-03-06T10:49:30.429Z,77.20
2019-03-06T10:52:00.062Z,77.20
2019-03-06T10:57:19.028Z,77.00
2019-03-06T10:59:48.783Z,77.10
2019-03-06T11:02:18.776Z,77.20
2019-03-06T11:05:04.509Z,77.20
2019-03-06T11:07:35.689Z,77.30
2019-03-06T11:10:06.640Z,77.40
2019-03-06T11:12:37.142Z,77.50
2019-03-06T11:15:09.358Z,77.30
2019-03-06T11:17:39.103Z,77.20
2019-03-06T11:20:13.234Z,77.10
2019-03-06T11:22:43.626Z,77.00
2019-03-06T11:25:15.018Z,77.10
2019-03-06T11:27:45.264Z,77.20
2019-03-06T11:33:44.213Z,77.10
2019-03-06T11:36:14.722Z,77.00
2019-03-06T11:38:44.718Z,77.00
2019-03-06T11:41:14.864Z,77.00
2019-03-06T11:43:45.460Z,77.00
2019-03-06T11:46:17.998Z,77.10
2019-03-06T11:48:52.855Z,77.10
2019-03-06T11:51:22.869Z,77.00
2019-03-06T11:53:53.371Z,77.00
2019-03-06T11:56:23.739Z,77.10
2019-03-06T11:58:53.841Z,77.90
2019-03-06T12:01:25.017Z,77.00
2019-03-06T12:03:55.494Z,77.00
2019-03-06T12:06:25.230Z,77.00
2019-03-06T12:08:55.258Z,76.80
2019-03-06T12:11:33.719Z,76.80
2019-03-06T12:14:00.883Z,76.80
2019-03-06T12:16:31.160Z,76.70
2019-03-06T12:19:06.583Z,76.60
2019-03-06T12:21:36.488Z,76.60
2019-03-06T12:24:08.598Z,76.70
2019-03-06T12:26:41.160Z,76.60
2019-03-06T12:29:12.130Z,76.60
2019-03-06T12:31:42.261Z,76.60
2019-03-06T12:34:13.344Z,76.60
2019-03-06T12:36:44.222Z,76.60
2019-03-06T12:39:13.770Z,76.50
2019-03-06T12:41:45.626Z,76.50
2019-03-06T12:44:16.161Z,76.50
2019-03-06T12:46:49.918Z,76.40
2019-03-06T12:49:20.150Z,76.40
2019-03-06T12:51:54.329Z,76.20
2019-03-06T12:54:22.026Z,76.20
2019-03-06T12:56:51.875Z,76.30
2019-03-06T12:59:21.396Z,76.20
2019-03-06T13:01:51.034Z,76.10
2019-03-06T13:04:21.129Z,76.10
2019-03-06T13:06:50.981Z,76.10
2019-03-06T13:09:22.552Z,76.00
2019-03-06T13:11:52.419Z,76.10
2019-03-06T13:14:23.024Z,76.00
2019-03-06T13:16:53.591Z,76.00
2019-03-06T13:19:23.152Z,75.90
2019-03-06T13:21:53.299Z,75.80
2019-03-06T13:24:23.659Z,75.80
2019-03-06T13:26:54.150Z,75.70
2019-03-06T13:29:25.809Z,75.80
2019-03-06T13:31:59.161Z,75.70
2019-03-06T13:34:51.504Z,75.70
2019-03-06T13:37:19.303Z,76.30
2019-03-06T13:39:48.743Z,75.50
2019-03-06T13:42:18.890Z,75.50
2019-03-06T13:44:48.662Z,75.40
2019-03-06T13:47:19.760Z,75.40
2019-03-06T13:49:49.573Z,75.40
2019-03-06T13:52:19.638Z,74.20
2019-03-06T13:54:49.671Z,74.10
2019-03-06T13:57:20.042Z,74.00
2019-03-06T13:59:50.093Z,74.00
2019-03-06T14:02:19.963Z,73.90
2019-03-06T14:04:50.647Z,73.90
2019-03-06T14:07:20.816Z,73.70
2019-03-06T14:09:50.491Z,73.70
2019-03-06T14:12:20.275Z,73.70
2019-03-06T14:14:49.874Z,73.70
2019-03-06T14:17:20.118Z,73.70
2019-03-06T14:19:50.607Z,73.70
2019-03-06T14:22:20.421Z,73.70
2019-03-06T14:25:08.369Z,73.70
2019-03-06T14:27:48.211Z,73.80
2019-03-06T14:30:19.037Z,73.60
2019-03-06T14:32:49.515Z,73.70
2019-03-06T14:35:19.426Z,73.60
2019-03-06T14:37:49.477Z,73.70
2019-03-06T14:40:26.004Z,73.50
2019-03-06T14:42:56.341Z,73.50
2019-03-06T14:45:26.369Z,73.30
2019-03-06T14:47:56.499Z,73.00
2019-03-06T14:50:26.914Z,72.60
2019-03-06T14:52:56.670Z,72.40
2019-03-06T14:55:26.607Z,72.30
2019-03-06T14:57:57.481Z,72.40
2019-03-06T15:00:28.062Z,72.40
2019-03-06T15:03:04.890Z,72.40
2019-03-06T15:05:36.201Z,72.50
2019-03-06T15:08:07.493Z,72.40
2019-03-06T15:10:42.858Z,72.40
2019-03-06T15:13:10.429Z,72.40
2019-03-06T15:15:39.812Z,72.40
2019-03-06T15:18:11.212Z,72.40
2019-03-06T15:20:41.386Z,72.40
2019-03-06T15:23:11.683Z,72.40
2019-03-06T15:25:41.393Z,72.40
2019-03-06T15:28:17.647Z,72.40
2019-03-06T15:30:48.805Z,72.40
2019-03-06T15:33:26.809Z,72.30
2019-03-06T15:35:57.436Z,72.40
2019-03-06T15:38:35.434Z,72.30
2019-03-06T15:42:00.316Z,72.30
2019-03-06T15:47:56.539Z,72.30
2019-03-06T15:50:27.738Z,72.30
2019-03-06T15:53:05.000Z,72.30
2019-03-06T15:55:40.995Z,72.30
2019-03-06T15:58:18.155Z,72.30
2019-03-06T16:00:51.833Z,72.30
2019-03-06T16:03:22.077Z,72.20
2019-03-06T16:05:52.935Z,72.20
2019-03-06T16:08:22.616Z,72.20
2019-03-06T16:10:53.194Z,72.20
2019-03-06T16:13:23.235Z,72.20
2019-03-06T16:15:53.222Z,72.20
2019-03-06T16:18:22.956Z,72.30
2019-03-06T16:20:53.108Z,72.20
2019-03-06T16:23:23.030Z,72.20
2019-03-06T16:25:52.875Z,72.20
2019-03-06T16:28:22.796Z,72.10
2019-03-06T16:30:53.322Z,72.10
2019-03-06T16:33:23.024Z,72.00
2019-03-06T16:35:53.051Z,72.00
2019-03-06T16:38:23.999Z,71.80
2019-03-06T16:40:58.070Z,71.80
2019-03-06T16:43:34.975Z,71.90
2019-03-06T16:46:05.011Z,73.00
2019-03-06T16:48:35.478Z,73.00
2019-03-06T16:51:07.457Z,73.50
2019-03-06T16:53:37.883Z,73.70
2019-03-06T16:56:08.399Z,73.80
2019-03-06T16:58:39.302Z,73.90
2019-03-06T17:01:12.263Z,73.80
2019-03-06T17:03:42.548Z,73.80
2019-03-06T17:06:12.889Z,73.80
2019-03-06T17:08:43.416Z,73.70
2019-03-06T17:11:14.790Z,73.60
2019-03-06T17:13:49.720Z,73.50
2019-03-06T17:16:20.794Z,73.50
2019-03-06T17:19:18.070Z,73.70
2019-03-06T17:21:48.228Z,73.80
2019-03-06T17:24:21.933Z,73.90
2019-03-06T17:29:50.639Z,74.20
2019-03-06T17:32:22.847Z,74.30
2019-03-06T17:34:53.244Z,74.50
2019-03-06T17:37:23.613Z,74.50
2019-03-06T17:39:55.128Z,74.60
2019-03-06T17:42:26.424Z,74.80
2019-03-06T17:45:01.058Z,74.90
2019-03-06T17:47:31.695Z,74.90
2019-03-06T17:50:02.641Z,75.00
2019-03-06T17:52:32.984Z,75.00
2019-03-06T17:55:03.561Z,75.00
2019-03-06T17:57:33.767Z,75.10
2019-03-06T18:00:16.465Z,75.10
2019-03-06T18:02:38.685Z,75.10
2019-03-06T18:05:17.830Z,75.20
2019-03-06T18:07:59.829Z,75.30
2019-03-06T18:10:30.259Z,75.30
2019-03-06T18:13:00.837Z,75.30
2019-03-06T18:15:31.470Z,75.40
2019-03-06T18:18:01.697Z,75.40
2019-03-06T18:20:36.109Z,75.50
2019-03-06T18:23:06.340Z,75.50
2019-03-06T18:25:36.152Z,75.50
2019-03-06T18:28:06.048Z,75.60
2019-03-06T18:30:37.281Z,75.50
2019-03-06T18:33:08.967Z,75.60
2019-03-06T18:35:39.457Z,75.70
2019-03-06T18:38:26.211Z,75.80
2019-03-06T18:40:55.968Z,75.80
2019-03-06T18:43:27.021Z,75.80
2019-03-06T18:45:58.638Z,75.90
2019-03-06T18:48:38.901Z,75.90
2019-03-06T18:51:21.317Z,76.00
2019-03-06T18:53:48.396Z,76.00
2019-03-06T18:56:21.827Z,76.00
2019-03-06T18:58:52.427Z,75.90
2019-03-06T19:01:44.660Z,76.00
2019-03-06T19:07:31.016Z,76.00
2019-03-06T19:10:30.681Z,76.00
2019-03-06T19:13:01.525Z,76.00
2019-03-06T19:15:32.678Z,76.00
2019-03-06T19:18:12.184Z,76.10
2019-03-06T19:20:48.826Z,76.10
2019-03-06T19:23:36.726Z,76.20
2019-03-06T19:32:47.744Z,76.20
2019-03-06T19:38:11.930Z,76.20
2019-03-06T19:40:42.415Z,76.30
2019-03-06T19:43:22.612Z,76.20
2019-03-06T19:45:55.597Z,76.30
2019-03-06T19:48:27.524Z,76.30
2019-03-06T19:50:57.439Z,76.40
2019-03-06T19:53:27.507Z,76.50
2019-03-06T19:55:58.203Z,76.50
2019-03-06T19:58:28.762Z,77.20
2019-03-06T20:00:58.294Z,76.50
2019-03-06T20:03:28.287Z,76.50
2019-03-06T20:05:58.404Z,76.50
2019-03-06T20:08:28.327Z,76.50
2019-03-06T20:10:57.847Z,76.50
2019-03-06T20:13:49.351Z,76.60
2019-03-06T20:16:19.265Z,76.70
2019-03-06T20:18:49.913Z,76.60
2019-03-06T20:21:20.245Z,76.70
2019-03-06T20:23:49.873Z,76.60
2019-03-06T20:26:19.839Z,76.70
2019-03-06T20:28:50.992Z,76.80
2019-03-06T20:31:20.471Z,76.80
2019-03-06T20:33:51.602Z,76.80
2019-03-06T20:36:21.455Z,76.80
2019-03-06T20:38:51.719Z,76.80
2019-03-06T20:41:26.099Z,76.90
2019-03-06T20:43:57.360Z,76.70
2019-03-06T20:46:27.784Z,76.80
2019-03-06T20:48:57.612Z,76.70
2019-03-06T20:51:27.467Z,76.70
2019-03-06T20:53:57.795Z,76.80
2019-03-06T20:56:33.937Z,76.70
2019-03-06T20:59:04.292Z,76.80
2019-03-06T21:01:34.974Z,76.70
2019-03-06T21:04:05.115Z,76.80
2019-03-06T21:06:37.972Z,76.80
2019-03-06T21:09:08.433Z,76.80
2019-03-06T21:11:38.138Z,76.80
2019-03-06T21:14:08.333Z,76.80
2019-03-06T21:16:37.987Z,76.70
2019-03-06T21:19:07.746Z,76.70
2019-03-06T21:21:39.842Z,76.70
2019-03-06T21:24:10.161Z,76.60
2019-03-06T21:26:40.455Z,76.70
2019-03-06T21:29:15.744Z,76.70
2019-03-06T21:31:46.234Z,76.70
2019-03-06T21:34:15.969Z,76.70
2019-03-06T21:36:45.879Z,76.70
2019-03-06T21:39:33.603Z,76.70
2019-03-06T21:42:05.792Z,76.70
2019-03-06T21:44:36.040Z,76.70
2019-03-06T21:47:05.991Z,76.70
2019-03-06T21:49:35.445Z,76.70
2019-03-06T21:52:05.498Z,76.70
2019-03-06T21:54:35.086Z,76.60
2019-03-06T21:57:04.874Z,76.60
2019-03-06T21:59:35.241Z,76.60
2019-03-06T22:02:05.858Z,76.60
2019-03-06T22:04:37.527Z,76.50
2019-03-06T22:07:07.723Z,76.50
2019-03-06T22:09:37.429Z,76.60
2019-03-06T22:12:07.291Z,76.40
2019-03-06T22:14:37.260Z,76.50
2019-03-06T22:17:10.287Z,76.50
2019-03-06T22:19:39.962Z,76.60
2019-03-06T22:22:10.119Z,76.60
2019-03-06T22:24:40.113Z,76.60
2019-03-06T22:30:39.023Z,76.50
2019-03-06T22:33:09.017Z,76.50
2019-03-06T22:35:41.332Z,76.50
2019-03-06T22:38:12.695Z,76.40
2019-03-06T22:40:42.594Z,76.40
2019-03-06T22:43:12.511Z,76.30
2019-03-06T22:45:42.476Z,76.30
2019-03-06T22:48:12.782Z,76.30
2019-03-06T22:51:01.391Z,76.40
2019-03-06T22:53:32.010Z,76.40
2019-03-06T22:56:02.183Z,76.30
2019-03-06T22:58:32.479Z,76.30
2019-03-06T23:01:09.049Z,76.40
2019-03-06T23:03:39.272Z,76.30
2019-03-06T23:06:10.238Z,76.40
2019-03-06T23:08:39.971Z,76.40
2019-03-06T23:11:11.387Z,76.50
2019-03-06T23:13:44.444Z,76.40
2019-03-06T23:16:14.841Z,76.40
2019-03-06T23:18:46.818Z,76.50
2019-03-06T23:21:16.784Z,76.50
2019-03-06T23:23:47.313Z,77.20
2019-03-06T23:26:17.649Z,76.40
2019-03-06T23:28:47.110Z,76.40
2019-03-06T23:31:17.655Z,76.50
2019-03-06T23:33:49.032Z,76.40
2019-03-06T23:36:19.853Z,76.40
2019-03-06T23:38:52.356Z,76.40
2019-03-06T23:41:22.044Z,75.70
2019-03-06T23:43:52.190Z,76.40
2019-03-06T23:49:10.566Z,76.40
2019-03-06T23:51:51.772Z,76.50
2019-03-06T23:54:23.493Z,76.40
2019-03-06T23:56:53.250Z,76.40
2019-03-06T23:59:23.166Z,76.30
